sensor_id;sensor_type;location;lat;lon;timestamp;temperature;humidity
22430;DHT22;11382;48.086;11.632;2022-09-27T00:00:58;10.50;99.90
22430;DHT22;11382;48.086;11.632;2022-09-27T00:03:26;10.50;99.90
22430;DHT22;11382;48.086;11.632;2022-09-27T00:06:07;10.60;99.90
22430;DHT22;11382;48.086;11.632;2022-09-27T00:08:36;10.50;99.90
22430;DHT22;11382;48.086;11.632;2022-09-27T00:11:05;10.50;99.90
22430;DHT22;11382;48.086;11.632;2022-09-27T00:13:34;10.50;99.90
22430;DHT22;11382;48.086;11.632;2022-09-27T00:16:03;10.50;99.90
22430;DHT22;11382;48.086;11.632;2022-09-27T00:18:32;10.50;99.90
22430;DHT22;11382;48.086;11.632;2022-09-27T00:21:06;10.50;99.90
22430;DHT22;11382;48.086;11.632;2022-09-27T00:23:35;10.50;99.90
22430;DHT22;11382;48.086;11.632;2022-09-27T00:26:04;10.50;99.90
22430;DHT22;11382;48.086;11.632;2022-09-27T00:28:33;10.30;99.90
22430;DHT22;11382;48.086;11.632;2022-09-27T00:31:01;10.40;99.90
22430;DHT22;11382;48.086;11.632;2022-09-27T00:33:29;10.40;99.90
22430;DHT22;11382;48.086;11.632;2022-09-27T00:36:04;10.40;99.90
22430;DHT22;11382;48.086;11.632;2022-09-27T00:38:33;10.30;99.90
22430;DHT22;11382;48.086;11.632;2022-09-27T00:41:00;10.40;99.90
22430;DHT22;11382;48.086;11.632;2022-09-27T00:43:42;10.50;99.90
22430;DHT22;11382;48.086;11.632;2022-09-27T00:46:12;10.60;99.90
22430;DHT22;11382;48.086;11.632;2022-09-27T00:48:44;10.60;99.90
22430;DHT22;11382;48.086;11.632;2022-09-27T00:51:14;10.60;99.90
22430;DHT22;11382;48.086;11.632;2022-09-27T00:53:47;10.50;99.90
22430;DHT22;11382;48.086;11.632;2022-09-27T00:56:19;10.40;99.90
22430;DHT22;11382;48.086;11.632;2022-09-27T00:58:51;10.30;99.90
22430;DHT22;11382;48.086;11.632;2022-09-27T01:01:22;10.30;99.90
22430;DHT22;11382;48.086;11.632;2022-09-27T01:03:54;10.30;99.90
22430;DHT22;11382;48.086;11.632;2022-09-27T01:06:24;10.40;99.90
22430;DHT22;11382;48.086;11.632;2022-09-27T01:08:53;10.40;99.90
22430;DHT22;11382;48.086;11.632;2022-09-27T01:11:32;10.40;99.90
22430;DHT22;11382;48.086;11.632;2022-09-27T01:14:23;10.50;99.90
22430;DHT22;11382;48.086;11.632;2022-09-27T01:17:00;10.50;99.90
22430;DHT22;11382;48.086;11.632;2022-09-27T01:22:29;10.50;99.90
22430;DHT22;11382;48.086;11.632;2022-09-27T01:25:12;10.50;99.90
22430;DHT22;11382;48.086;11.632;2022-09-27T01:28:08;10.40;99.90
22430;DHT22;11382;48.086;11.632;2022-09-27T01:30:44;10.40;99.90
22430;DHT22;11382;48.086;11.632;2022-09-27T01:33:24;10.50;99.90
22430;DHT22;11382;48.086;11.632;2022-09-27T01:36:10;10.50;99.90
22430;DHT22;11382;48.086;11.632;2022-09-27T01:38:46;10.40;99.90
22430;DHT22;11382;48.086;11.632;2022-09-27T01:41:27;10.30;99.90
22430;DHT22;11382;48.086;11.632;2022-09-27T01:44:22;10.30;99.90
22430;DHT22;11382;48.086;11.632;2022-09-27T01:47:03;10.20;99.90
22430;DHT22;11382;48.086;11.632;2022-09-27T01:49:55;10.20;99.90
22430;DHT22;11382;48.086;11.632;2022-09-27T01:52:30;10.30;99.90
22430;DHT22;11382;48.086;11.632;2022-09-27T01:54:59;10.20;99.90
22430;DHT22;11382;48.086;11.632;2022-09-27T01:57:52;10.20;99.90
22430;DHT22;11382;48.086;11.632;2022-09-27T02:00:24;10.20;99.90
22430;DHT22;11382;48.086;11.632;2022-09-27T02:02:58;10.10;99.90
22430;DHT22;11382;48.086;11.632;2022-09-27T02:05:37;10.10;99.90
22430;DHT22;11382;48.086;11.632;2022-09-27T02:08:26;10.00;99.90
22430;DHT22;11382;48.086;11.632;2022-09-27T02:11:01;10.00;99.90
22430;DHT22;11382;48.086;11.632;2022-09-27T02:13:35;10.00;99.90
22430;DHT22;11382;48.086;11.632;2022-09-27T02:16:31;10.00;99.90
22430;DHT22;11382;48.086;11.632;2022-09-27T02:19:09;10.00;99.90
22430;DHT22;11382;48.086;11.632;2022-09-27T02:21:41;9.90;99.90
22430;DHT22;11382;48.086;11.632;2022-09-27T02:24:13;9.90;99.90
22430;DHT22;11382;48.086;11.632;2022-09-27T02:26:52;9.90;99.90
22430;DHT22;11382;48.086;11.632;2022-09-27T02:29:31;9.90;99.90
22430;DHT22;11382;48.086;11.632;2022-09-27T02:32:01;9.90;99.90
22430;DHT22;11382;48.086;11.632;2022-09-27T02:34:31;9.90;99.90
22430;DHT22;11382;48.086;11.632;2022-09-27T02:37:01;9.90;99.90
22430;DHT22;11382;48.086;11.632;2022-09-27T02:39:29;9.90;99.90
22430;DHT22;11382;48.086;11.632;2022-09-27T02:42:03;9.80;99.90
22430;DHT22;11382;48.086;11.632;2022-09-27T02:44:32;9.80;99.90
22430;DHT22;11382;48.086;11.632;2022-09-27T02:47:17;9.80;99.90
22430;DHT22;11382;48.086;11.632;2022-09-27T02:49:59;9.90;99.90
22430;DHT22;11382;48.086;11.632;2022-09-27T02:53:06;9.90;99.90
22430;DHT22;11382;48.086;11.632;2022-09-27T02:55:48;9.90;99.90
22430;DHT22;11382;48.086;11.632;2022-09-27T02:58:57;9.90;99.90
22430;DHT22;11382;48.086;11.632;2022-09-27T03:01:50;9.90;99.90
22430;DHT22;11382;48.086;11.632;2022-09-27T03:04:36;9.90;99.90
22430;DHT22;11382;48.086;11.632;2022-09-27T03:07:07;9.90;99.90
22430;DHT22;11382;48.086;11.632;2022-09-27T03:09:45;9.90;99.90
22430;DHT22;11382;48.086;11.632;2022-09-27T03:12:13;9.90;99.90
22430;DHT22;11382;48.086;11.632;2022-09-27T03:14:46;9.90;99.90
22430;DHT22;11382;48.086;11.632;2022-09-27T03:17:37;9.90;99.90
22430;DHT22;11382;48.086;11.632;2022-09-27T03:20:23;9.90;99.90
22430;DHT22;11382;48.086;11.632;2022-09-27T03:23:03;9.90;99.90
22430;DHT22;11382;48.086;11.632;2022-09-27T03:25:31;9.90;99.90
22430;DHT22;11382;48.086;11.632;2022-09-27T03:28:00;9.90;99.90
22430;DHT22;11382;48.086;11.632;2022-09-27T03:30:28;9.90;99.90
22430;DHT22;11382;48.086;11.632;2022-09-27T03:32:57;9.80;99.90
22430;DHT22;11382;48.086;11.632;2022-09-27T03:35:44;9.80;99.90
22430;DHT22;11382;48.086;11.632;2022-09-27T03:38:14;9.80;99.90
22430;DHT22;11382;48.086;11.632;2022-09-27T03:40:43;9.80;99.90
22430;DHT22;11382;48.086;11.632;2022-09-27T03:43:12;9.80;99.90
22430;DHT22;11382;48.086;11.632;2022-09-27T03:45:42;9.80;99.90
22430;DHT22;11382;48.086;11.632;2022-09-27T03:48:11;9.70;99.90
22430;DHT22;11382;48.086;11.632;2022-09-27T03:50:40;9.70;99.90
22430;DHT22;11382;48.086;11.632;2022-09-27T03:53:08;9.70;99.90
22430;DHT22;11382;48.086;11.632;2022-09-27T03:55:37;9.70;99.90
22430;DHT22;11382;48.086;11.632;2022-09-27T03:58:06;9.60;99.90
22430;DHT22;11382;48.086;11.632;2022-09-27T04:00:34;9.50;99.90
22430;DHT22;11382;48.086;11.632;2022-09-27T04:03:02;9.60;99.90
22430;DHT22;11382;48.086;11.632;2022-09-27T04:05:51;9.60;99.90
22430;DHT22;11382;48.086;11.632;2022-09-27T04:08:25;9.60;99.90
22430;DHT22;11382;48.086;11.632;2022-09-27T04:10:54;9.70;99.90
22430;DHT22;11382;48.086;11.632;2022-09-27T04:13:23;9.80;99.90
22430;DHT22;11382;48.086;11.632;2022-09-27T04:15:53;9.80;99.90
22430;DHT22;11382;48.086;11.632;2022-09-27T04:18:50;9.80;99.90
22430;DHT22;11382;48.086;11.632;2022-09-27T04:21:40;9.80;99.90
22430;DHT22;11382;48.086;11.632;2022-09-27T04:24:09;9.80;99.90
22430;DHT22;11382;48.086;11.632;2022-09-27T04:26:44;9.80;99.90
22430;DHT22;11382;48.086;11.632;2022-09-27T04:29:13;9.80;99.90
22430;DHT22;11382;48.086;11.632;2022-09-27T04:31:48;9.70;99.90
22430;DHT22;11382;48.086;11.632;2022-09-27T04:34:18;9.70;99.90
22430;DHT22;11382;48.086;11.632;2022-09-27T04:37:12;9.80;99.90
22430;DHT22;11382;48.086;11.632;2022-09-27T04:39:43;9.80;99.90
22430;DHT22;11382;48.086;11.632;2022-09-27T04:42:12;9.80;99.90
22430;DHT22;11382;48.086;11.632;2022-09-27T04:44:40;9.80;99.90
22430;DHT22;11382;48.086;11.632;2022-09-27T04:47:08;9.70;99.90
22430;DHT22;11382;48.086;11.632;2022-09-27T04:49:36;9.70;99.90
22430;DHT22;11382;48.086;11.632;2022-09-27T04:52:04;9.70;99.90
22430;DHT22;11382;48.086;11.632;2022-09-27T04:54:32;9.70;99.90
22430;DHT22;11382;48.086;11.632;2022-09-27T04:57:09;9.70;99.90
22430;DHT22;11382;48.086;11.632;2022-09-27T04:59:40;9.60;99.90
22430;DHT22;11382;48.086;11.632;2022-09-27T05:02:08;9.60;99.90
22430;DHT22;11382;48.086;11.632;2022-09-27T05:04:54;9.60;99.90
22430;DHT22;11382;48.086;11.632;2022-09-27T05:07:23;9.60;99.90
22430;DHT22;11382;48.086;11.632;2022-09-27T05:09:56;9.60;99.90
22430;DHT22;11382;48.086;11.632;2022-09-27T05:12:25;9.60;99.90
22430;DHT22;11382;48.086;11.632;2022-09-27T05:14:58;9.70;99.90
22430;DHT22;11382;48.086;11.632;2022-09-27T05:17:44;9.70;99.90
22430;DHT22;11382;48.086;11.632;2022-09-27T05:20:18;9.70;99.90
22430;DHT22;11382;48.086;11.632;2022-09-27T05:22:55;9.70;99.90
22430;DHT22;11382;48.086;11.632;2022-09-27T05:25:24;9.70;99.90
22430;DHT22;11382;48.086;11.632;2022-09-27T05:27:51;9.70;99.90
22430;DHT22;11382;48.086;11.632;2022-09-27T05:30:21;9.80;99.90
22430;DHT22;11382;48.086;11.632;2022-09-27T05:32:53;9.80;99.90
22430;DHT22;11382;48.086;11.632;2022-09-27T05:35:41;9.80;99.90
22430;DHT22;11382;48.086;11.632;2022-09-27T05:38:13;9.80;99.90
22430;DHT22;11382;48.086;11.632;2022-09-27T05:40:44;9.80;99.90
22430;DHT22;11382;48.086;11.632;2022-09-27T05:43:14;9.70;99.90
22430;DHT22;11382;48.086;11.632;2022-09-27T05:45:44;9.80;99.90
22430;DHT22;11382;48.086;11.632;2022-09-27T05:48:14;9.70;99.90
22430;DHT22;11382;48.086;11.632;2022-09-27T05:50:51;9.80;99.90
22430;DHT22;11382;48.086;11.632;2022-09-27T05:53:19;9.80;99.90
22430;DHT22;11382;48.086;11.632;2022-09-27T05:55:47;9.80;99.90
22430;DHT22;11382;48.086;11.632;2022-09-27T05:58:18;9.70;99.90
22430;DHT22;11382;48.086;11.632;2022-09-27T06:00:53;9.80;99.90
22430;DHT22;11382;48.086;11.632;2022-09-27T06:03:48;9.90;99.90
22430;DHT22;11382;48.086;11.632;2022-09-27T06:06:21;10.10;99.90
22430;DHT22;11382;48.086;11.632;2022-09-27T06:08:53;10.10;99.90
22430;DHT22;11382;48.086;11.632;2022-09-27T06:11:23;10.10;99.90
22430;DHT22;11382;48.086;11.632;2022-09-27T06:13:53;10.10;99.90
22430;DHT22;11382;48.086;11.632;2022-09-27T06:16:24;10.00;99.90
22430;DHT22;11382;48.086;11.632;2022-09-27T06:18:52;9.90;99.90
22430;DHT22;11382;48.086;11.632;2022-09-27T06:21:20;9.90;99.90
22430;DHT22;11382;48.086;11.632;2022-09-27T06:23:54;10.00;99.90
22430;DHT22;11382;48.086;11.632;2022-09-27T06:26:28;10.00;99.90
22430;DHT22;11382;48.086;11.632;2022-09-27T06:29:15;10.10;99.90
22430;DHT22;11382;48.086;11.632;2022-09-27T06:31:51;10.10;99.90
22430;DHT22;11382;48.086;11.632;2022-09-27T06:34:34;10.10;99.90
22430;DHT22;11382;48.086;11.632;2022-09-27T06:37:03;10.20;99.90
22430;DHT22;11382;48.086;11.632;2022-09-27T06:39:31;10.20;99.90
22430;DHT22;11382;48.086;11.632;2022-09-27T06:42:19;10.40;99.90
22430;DHT22;11382;48.086;11.632;2022-09-27T06:45:03;10.40;99.90
22430;DHT22;11382;48.086;11.632;2022-09-27T06:47:51;10.70;99.90
22430;DHT22;11382;48.086;11.632;2022-09-27T06:50:32;10.90;99.90
22430;DHT22;11382;48.086;11.632;2022-09-27T06:53:00;10.90;99.90
22430;DHT22;11382;48.086;11.632;2022-09-27T06:55:28;11.40;99.90
22430;DHT22;11382;48.086;11.632;2022-09-27T06:57:57;12.10;99.90
22430;DHT22;11382;48.086;11.632;2022-09-27T07:01:02;12.40;99.90
22430;DHT22;11382;48.086;11.632;2022-09-27T07:04:04;12.40;99.90
22430;DHT22;11382;48.086;11.632;2022-09-27T07:06:47;12.20;99.90
22430;DHT22;11382;48.086;11.632;2022-09-27T07:09:21;11.90;99.90
22430;DHT22;11382;48.086;11.632;2022-09-27T07:11:49;11.70;99.90
22430;DHT22;11382;48.086;11.632;2022-09-27T07:14:19;11.60;99.90
22430;DHT22;11382;48.086;11.632;2022-09-27T07:16:48;11.70;99.90
22430;DHT22;11382;48.086;11.632;2022-09-27T07:19:18;11.80;99.90
22430;DHT22;11382;48.086;11.632;2022-09-27T07:21:49;11.70;99.90
22430;DHT22;11382;48.086;11.632;2022-09-27T07:24:18;11.60;99.90
22430;DHT22;11382;48.086;11.632;2022-09-27T07:26:46;11.50;99.90
22430;DHT22;11382;48.086;11.632;2022-09-27T07:29:17;11.80;99.90
22430;DHT22;11382;48.086;11.632;2022-09-27T07:31:46;12.00;99.90
22430;DHT22;11382;48.086;11.632;2022-09-27T07:34:14;11.80;99.90
22430;DHT22;11382;48.086;11.632;2022-09-27T07:36:45;11.70;99.90
22430;DHT22;11382;48.086;11.632;2022-09-27T07:39:14;11.80;99.90
22430;DHT22;11382;48.086;11.632;2022-09-27T07:41:42;12.10;99.90
22430;DHT22;11382;48.086;11.632;2022-09-27T07:44:12;13.40;99.90
22430;DHT22;11382;48.086;11.632;2022-09-27T07:46:53;13.60;99.90
22430;DHT22;11382;48.086;11.632;2022-09-27T07:49:26;13.90;99.90
22430;DHT22;11382;48.086;11.632;2022-09-27T07:52:11;13.80;99.90
22430;DHT22;11382;48.086;11.632;2022-09-27T07:55:06;13.80;99.90
22430;DHT22;11382;48.086;11.632;2022-09-27T07:57:48;14.00;99.90
22430;DHT22;11382;48.086;11.632;2022-09-27T08:00:19;14.40;99.90
22430;DHT22;11382;48.086;11.632;2022-09-27T08:02:47;13.60;99.90
22430;DHT22;11382;48.086;11.632;2022-09-27T08:05:15;13.80;99.90
22430;DHT22;11382;48.086;11.632;2022-09-27T08:07:44;13.60;99.90
22430;DHT22;11382;48.086;11.632;2022-09-27T08:10:12;13.20;99.90
22430;DHT22;11382;48.086;11.632;2022-09-27T08:12:41;14.20;99.90
22430;DHT22;11382;48.086;11.632;2022-09-27T08:15:09;14.60;99.90
22430;DHT22;11382;48.086;11.632;2022-09-27T08:17:37;14.20;99.90
22430;DHT22;11382;48.086;11.632;2022-09-27T08:20:21;13.70;99.90
22430;DHT22;11382;48.086;11.632;2022-09-27T08:23:22;13.60;99.90
22430;DHT22;11382;48.086;11.632;2022-09-27T08:26:05;12.70;99.90
22430;DHT22;11382;48.086;11.632;2022-09-27T08:28:55;11.50;99.90
22430;DHT22;11382;48.086;11.632;2022-09-27T08:31:25;10.70;99.90
22430;DHT22;11382;48.086;11.632;2022-09-27T08:33:55;10.40;99.90
22430;DHT22;11382;48.086;11.632;2022-09-27T08:36:23;10.20;99.90
22430;DHT22;11382;48.086;11.632;2022-09-27T08:38:52;10.40;99.90
22430;DHT22;11382;48.086;11.632;2022-09-27T08:41:34;10.20;99.90
22430;DHT22;11382;48.086;11.632;2022-09-27T08:44:13;10.30;99.90
22430;DHT22;11382;48.086;11.632;2022-09-27T08:47:14;10.60;99.90
22430;DHT22;11382;48.086;11.632;2022-09-27T08:49:48;10.40;99.90
22430;DHT22;11382;48.086;11.632;2022-09-27T08:52:19;10.50;99.90
22430;DHT22;11382;48.086;11.632;2022-09-27T08:54:51;10.60;99.90
22430;DHT22;11382;48.086;11.632;2022-09-27T08:57:20;10.90;99.90
22430;DHT22;11382;48.086;11.632;2022-09-27T09:00:02;11.50;99.90
22430;DHT22;11382;48.086;11.632;2022-09-27T09:02:31;12.60;99.90
22430;DHT22;11382;48.086;11.632;2022-09-27T09:05:05;12.90;99.90
22430;DHT22;11382;48.086;11.632;2022-09-27T09:07:55;13.60;99.90
22430;DHT22;11382;48.086;11.632;2022-09-27T09:10:41;15.30;99.90
22430;DHT22;11382;48.086;11.632;2022-09-27T09:13:40;15.30;99.90
22430;DHT22;11382;48.086;11.632;2022-09-27T09:16:20;13.80;99.90
22430;DHT22;11382;48.086;11.632;2022-09-27T09:19:01;12.80;99.90
22430;DHT22;11382;48.086;11.632;2022-09-27T09:22:01;12.80;99.90
22430;DHT22;11382;48.086;11.632;2022-09-27T09:24:42;13.80;99.90
22430;DHT22;11382;48.086;11.632;2022-09-27T09:27:20;15.40;99.90
22430;DHT22;11382;48.086;11.632;2022-09-27T09:30:04;16.90;99.90
22430;DHT22;11382;48.086;11.632;2022-09-27T09:32:51;17.60;99.90
22430;DHT22;11382;48.086;11.632;2022-09-27T09:35:24;17.70;99.90
22430;DHT22;11382;48.086;11.632;2022-09-27T09:37:56;17.70;99.90
22430;DHT22;11382;48.086;11.632;2022-09-27T09:40:27;18.40;99.90
22430;DHT22;11382;48.086;11.632;2022-09-27T09:43:00;18.80;99.90
22430;DHT22;11382;48.086;11.632;2022-09-27T09:45:30;18.50;99.90
22430;DHT22;11382;48.086;11.632;2022-09-27T09:48:06;17.20;99.90
22430;DHT22;11382;48.086;11.632;2022-09-27T09:50:38;15.70;99.90
22430;DHT22;11382;48.086;11.632;2022-09-27T09:53:12;14.30;99.90
22430;DHT22;11382;48.086;11.632;2022-09-27T09:55:44;13.90;99.90
22430;DHT22;11382;48.086;11.632;2022-09-27T09:58:22;13.20;99.90
22430;DHT22;11382;48.086;11.632;2022-09-27T10:01:12;13.00;99.90
22430;DHT22;11382;48.086;11.632;2022-09-27T10:03:40;12.80;99.90
22430;DHT22;11382;48.086;11.632;2022-09-27T10:06:11;12.90;99.90
22430;DHT22;11382;48.086;11.632;2022-09-27T10:08:40;12.70;99.90
22430;DHT22;11382;48.086;11.632;2022-09-27T10:11:23;12.30;99.90
22430;DHT22;11382;48.086;11.632;2022-09-27T10:14:10;11.90;99.90
22430;DHT22;11382;48.086;11.632;2022-09-27T10:16:40;11.60;99.90
22430;DHT22;11382;48.086;11.632;2022-09-27T10:19:09;11.60;99.90
22430;DHT22;11382;48.086;11.632;2022-09-27T10:21:41;11.50;99.90
22430;DHT22;11382;48.086;11.632;2022-09-27T10:24:14;11.10;99.90
22430;DHT22;11382;48.086;11.632;2022-09-27T10:26:59;10.70;99.90
22430;DHT22;11382;48.086;11.632;2022-09-27T10:29:33;10.80;99.90
22430;DHT22;11382;48.086;11.632;2022-09-27T10:32:20;10.70;99.90
22430;DHT22;11382;48.086;11.632;2022-09-27T10:34:50;10.70;99.90
22430;DHT22;11382;48.086;11.632;2022-09-27T10:37:21;10.80;99.90
22430;DHT22;11382;48.086;11.632;2022-09-27T10:40:23;11.10;99.90
22430;DHT22;11382;48.086;11.632;2022-09-27T10:42:53;11.60;99.90
22430;DHT22;11382;48.086;11.632;2022-09-27T10:45:30;11.90;99.90
22430;DHT22;11382;48.086;11.632;2022-09-27T10:48:18;11.80;99.90
22430;DHT22;11382;48.086;11.632;2022-09-27T10:50:56;11.50;99.90
22430;DHT22;11382;48.086;11.632;2022-09-27T10:53:37;11.60;99.90
22430;DHT22;11382;48.086;11.632;2022-09-27T10:56:22;11.80;99.90
22430;DHT22;11382;48.086;11.632;2022-09-27T10:58:51;11.90;99.90
22430;DHT22;11382;48.086;11.632;2022-09-27T11:01:22;12.30;99.90
22430;DHT22;11382;48.086;11.632;2022-09-27T11:04:20;12.30;99.90
22430;DHT22;11382;48.086;11.632;2022-09-27T11:06:49;14.50;99.90
22430;DHT22;11382;48.086;11.632;2022-09-27T11:09:20;15.90;99.90
22430;DHT22;11382;48.086;11.632;2022-09-27T11:12:08;16.60;99.90
22430;DHT22;11382;48.086;11.632;2022-09-27T11:14:37;16.70;99.90
22430;DHT22;11382;48.086;11.632;2022-09-27T11:17:13;17.20;99.90
22430;DHT22;11382;48.086;11.632;2022-09-27T11:20:13;16.30;99.90
22430;DHT22;11382;48.086;11.632;2022-09-27T11:23:07;16.80;99.90
22430;DHT22;11382;48.086;11.632;2022-09-27T11:25:42;15.30;99.90
22430;DHT22;11382;48.086;11.632;2022-09-27T11:28:21;14.10;99.90
22430;DHT22;11382;48.086;11.632;2022-09-27T11:31:00;13.20;99.90
22430;DHT22;11382;48.086;11.632;2022-09-27T11:33:51;12.80;99.90
22430;DHT22;11382;48.086;11.632;2022-09-27T11:36:37;14.10;99.90
22430;DHT22;11382;48.086;11.632;2022-09-27T11:39:15;14.10;99.90
22430;DHT22;11382;48.086;11.632;2022-09-27T11:41:59;13.40;99.90
22430;DHT22;11382;48.086;11.632;2022-09-27T11:44:52;13.00;99.90
22430;DHT22;11382;48.086;11.632;2022-09-27T11:47:50;12.90;99.90
22430;DHT22;11382;48.086;11.632;2022-09-27T11:50:48;12.80;99.90
22430;DHT22;11382;48.086;11.632;2022-09-27T11:53:45;12.60;99.90
22430;DHT22;11382;48.086;11.632;2022-09-27T11:56:26;12.20;99.90
22430;DHT22;11382;48.086;11.632;2022-09-27T11:59:11;12.10;99.90
22430;DHT22;11382;48.086;11.632;2022-09-27T12:01:52;12.20;99.90
22430;DHT22;11382;48.086;11.632;2022-09-27T12:04:34;12.30;99.90
22430;DHT22;11382;48.086;11.632;2022-09-27T12:07:13;12.20;99.90
22430;DHT22;11382;48.086;11.632;2022-09-27T12:09:47;11.80;99.90
22430;DHT22;11382;48.086;11.632;2022-09-27T12:12:18;11.50;99.90
22430;DHT22;11382;48.086;11.632;2022-09-27T12:14:51;11.30;99.90
22430;DHT22;11382;48.086;11.632;2022-09-27T12:17:23;11.50;99.90
22430;DHT22;11382;48.086;11.632;2022-09-27T12:19:57;11.60;99.90
22430;DHT22;11382;48.086;11.632;2022-09-27T12:22:48;11.70;99.90
22430;DHT22;11382;48.086;11.632;2022-09-27T12:25:48;11.80;99.90
22430;DHT22;11382;48.086;11.632;2022-09-27T12:28:28;12.20;99.90
22430;DHT22;11382;48.086;11.632;2022-09-27T12:31:04;12.50;99.90
22430;DHT22;11382;48.086;11.632;2022-09-27T12:34:05;12.80;99.90
22430;DHT22;11382;48.086;11.632;2022-09-27T12:36:38;13.40;99.90
22430;DHT22;11382;48.086;11.632;2022-09-27T12:39:18;13.50;99.90
22430;DHT22;11382;48.086;11.632;2022-09-27T12:41:55;13.40;99.90
22430;DHT22;11382;48.086;11.632;2022-09-27T12:44:44;13.60;99.90
22430;DHT22;11382;48.086;11.632;2022-09-27T12:47:42;14.10;99.90
22430;DHT22;11382;48.086;11.632;2022-09-27T12:50:23;14.40;99.90
22430;DHT22;11382;48.086;11.632;2022-09-27T12:53:02;14.20;99.90
22430;DHT22;11382;48.086;11.632;2022-09-27T12:55:46;13.70;99.90
22430;DHT22;11382;48.086;11.632;2022-09-27T13:01:47;13.30;99.90
22430;DHT22;11382;48.086;11.632;2022-09-27T13:04:36;13.50;99.90
22430;DHT22;11382;48.086;11.632;2022-09-27T13:07:24;13.80;99.90
22430;DHT22;11382;48.086;11.632;2022-09-27T13:10:09;13.60;99.90
22430;DHT22;11382;48.086;11.632;2022-09-27T13:12:48;13.40;99.90
22430;DHT22;11382;48.086;11.632;2022-09-27T13:15:23;13.20;99.90
22430;DHT22;11382;48.086;11.632;2022-09-27T13:17:55;13.20;99.90
22430;DHT22;11382;48.086;11.632;2022-09-27T13:20:51;13.20;99.90
22430;DHT22;11382;48.086;11.632;2022-09-27T13:23:57;13.00;99.90
22430;DHT22;11382;48.086;11.632;2022-09-27T13:26:48;12.80;99.90
22430;DHT22;11382;48.086;11.632;2022-09-27T13:29:29;13.00;99.90
22430;DHT22;11382;48.086;11.632;2022-09-27T13:32:18;12.80;99.90
22430;DHT22;11382;48.086;11.632;2022-09-27T13:35:18;12.50;99.90
22430;DHT22;11382;48.086;11.632;2022-09-27T13:37:52;12.60;99.90
22430;DHT22;11382;48.086;11.632;2022-09-27T13:40:33;12.70;99.90
22430;DHT22;11382;48.086;11.632;2022-09-27T13:43:42;13.00;99.90
22430;DHT22;11382;48.086;11.632;2022-09-27T13:46:25;13.00;99.90
22430;DHT22;11382;48.086;11.632;2022-09-27T13:48:57;12.80;99.90
22430;DHT22;11382;48.086;11.632;2022-09-27T13:51:42;12.90;99.90
22430;DHT22;11382;48.086;11.632;2022-09-27T13:54:36;12.80;99.90
22430;DHT22;11382;48.086;11.632;2022-09-27T13:57:40;12.50;99.90
22430;DHT22;11382;48.086;11.632;2022-09-27T14:00:13;12.10;99.90
22430;DHT22;11382;48.086;11.632;2022-09-27T14:02:53;11.70;99.90
22430;DHT22;11382;48.086;11.632;2022-09-27T14:05:26;11.30;99.90
22430;DHT22;11382;48.086;11.632;2022-09-27T14:07:58;11.00;99.90
22430;DHT22;11382;48.086;11.632;2022-09-27T14:10:29;11.00;99.90
22430;DHT22;11382;48.086;11.632;2022-09-27T14:13:00;11.00;99.90
22430;DHT22;11382;48.086;11.632;2022-09-27T14:15:31;10.70;99.90
22430;DHT22;11382;48.086;11.632;2022-09-27T14:18:03;10.50;99.90
22430;DHT22;11382;48.086;11.632;2022-09-27T14:20:35;10.60;99.90
22430;DHT22;11382;48.086;11.632;2022-09-27T14:23:14;10.60;99.90
22430;DHT22;11382;48.086;11.632;2022-09-27T14:25:45;10.60;99.90
22430;DHT22;11382;48.086;11.632;2022-09-27T14:28:20;10.70;99.90
22430;DHT22;11382;48.086;11.632;2022-09-27T14:31:05;10.70;99.90
22430;DHT22;11382;48.086;11.632;2022-09-27T14:33:50;10.80;99.90
22430;DHT22;11382;48.086;11.632;2022-09-27T14:36:28;10.80;99.90
22430;DHT22;11382;48.086;11.632;2022-09-27T14:39:19;11.20;99.90
22430;DHT22;11382;48.086;11.632;2022-09-27T14:41:52;11.50;99.90
22430;DHT22;11382;48.086;11.632;2022-09-27T14:44:20;11.40;99.90
22430;DHT22;11382;48.086;11.632;2022-09-27T14:47:07;11.50;99.90
22430;DHT22;11382;48.086;11.632;2022-09-27T14:49:45;11.20;99.90
22430;DHT22;11382;48.086;11.632;2022-09-27T14:52:17;10.80;99.90
22430;DHT22;11382;48.086;11.632;2022-09-27T14:54:55;10.60;99.90
22430;DHT22;11382;48.086;11.632;2022-09-27T14:57:25;10.50;99.90
22430;DHT22;11382;48.086;11.632;2022-09-27T14:59:54;10.60;99.90
22430;DHT22;11382;48.086;11.632;2022-09-27T15:02:24;10.70;99.90
22430;DHT22;11382;48.086;11.632;2022-09-27T15:04:55;10.80;99.90
22430;DHT22;11382;48.086;11.632;2022-09-27T15:07:23;10.80;99.90
22430;DHT22;11382;48.086;11.632;2022-09-27T15:09:51;10.80;99.90
22430;DHT22;11382;48.086;11.632;2022-09-27T15:12:23;10.70;99.90
22430;DHT22;11382;48.086;11.632;2022-09-27T15:14:53;10.70;99.90
22430;DHT22;11382;48.086;11.632;2022-09-27T15:17:24;10.80;99.90
22430;DHT22;11382;48.086;11.632;2022-09-27T15:19:58;10.90;99.90
22430;DHT22;11382;48.086;11.632;2022-09-27T15:22:36;10.80;99.90
22430;DHT22;11382;48.086;11.632;2022-09-27T15:25:17;10.90;99.90
22430;DHT22;11382;48.086;11.632;2022-09-27T15:27:51;10.90;99.90
22430;DHT22;11382;48.086;11.632;2022-09-27T15:30:20;10.90;99.90
22430;DHT22;11382;48.086;11.632;2022-09-27T15:32:55;11.00;99.90
22430;DHT22;11382;48.086;11.632;2022-09-27T15:35:28;10.90;99.90
22430;DHT22;11382;48.086;11.632;2022-09-27T15:41:06;11.20;99.90
22430;DHT22;11382;48.086;11.632;2022-09-27T15:43:38;11.30;99.90
22430;DHT22;11382;48.086;11.632;2022-09-27T15:46:27;11.60;99.90
22430;DHT22;11382;48.086;11.632;2022-09-27T15:49:18;11.60;99.90
22430;DHT22;11382;48.086;11.632;2022-09-27T15:51:49;11.60;99.90
22430;DHT22;11382;48.086;11.632;2022-09-27T15:54:18;11.60;99.90
22430;DHT22;11382;48.086;11.632;2022-09-27T15:56:47;11.50;99.90
22430;DHT22;11382;48.086;11.632;2022-09-27T15:59:22;11.30;99.90
22430;DHT22;11382;48.086;11.632;2022-09-27T16:01:55;11.10;99.90
22430;DHT22;11382;48.086;11.632;2022-09-27T16:04:24;10.90;99.90
22430;DHT22;11382;48.086;11.632;2022-09-27T16:06:54;10.80;99.90
22430;DHT22;11382;48.086;11.632;2022-09-27T16:09:21;10.80;99.90
22430;DHT22;11382;48.086;11.632;2022-09-27T16:11:49;10.80;99.90
22430;DHT22;11382;48.086;11.632;2022-09-27T16:14:18;10.80;99.90
22430;DHT22;11382;48.086;11.632;2022-09-27T16:16:48;10.90;99.90
22430;DHT22;11382;48.086;11.632;2022-09-27T16:19:16;10.90;99.90
22430;DHT22;11382;48.086;11.632;2022-09-27T16:21:44;10.90;99.90
22430;DHT22;11382;48.086;11.632;2022-09-27T16:24:15;10.80;99.90
22430;DHT22;11382;48.086;11.632;2022-09-27T16:26:43;10.80;99.90
22430;DHT22;11382;48.086;11.632;2022-09-27T16:29:12;10.70;99.90